Terminal Aerodrome Forecast
Issued by NWS

Home | Current Version | Previous Version | Text Only | Print | Product List | Glossary On
Versions: 1 2 3 4 5 6 7 8 9 10 11 12 13
576
FTUS45 KRIW 221725
TAFCOD
TAF
KCOD 221725Z 2218/2318 02015G25KT P6SM VCSH SCT040 BKN060
      TEMPO 2218/2221 6SM -RA BR SCT008 OVC020
     FM222100 36012G19KT P6SM VCSH SCT020 BKN050
     FM230200 34007KT P6SM FEW050 SCT070
     FM230500 24007KT P6SM FEW060
      AMD LTD TO CLD VIS AND WIND=

USA.gov is the U.S. government's official web portal to all federal, state and local government web resources and services.